Time;durP1;ratioP1;P1;durP2;ratioP2;P2;SDS_P1;SDS_P2;PMS_P1;PMS_P2;Temp;Humidity;BMP_temperature;BMP_pressure;BME280_temperature;BME280_humidity;BME280_pressure;Samples;Min_cycle;Max_cycle;Signal;HPM_P1;HPM_P2
2022/05/30 00:00:45;;;;;;;1.90;0.90;;;;;;;;;;5088390;28;20067;-67
2022/05/30 00:03:12;;;;;;;1.58;0.80;;;;;;;;;;5081087;28;20113;-67
2022/05/30 00:05:43;;;;;;;5.15;0.90;;;;;;;;;;5076615;28;20049;-67
2022/05/30 00:08:09;;;;;;;2.47;0.80;;;;;;;;;;5089388;28;20059;-67
2022/05/30 00:10:36;;;;;;;3.40;0.90;;;;;;;;;;5086154;28;20052;-67
2022/05/30 00:13:03;;;;;;;1.48;0.80;;;;;;;;;;5098455;28;20056;-67
2022/05/30 00:15:32;;;;;;;3.03;0.90;;;;;;;;;;5087724;28;20101;-67
2022/05/30 00:17:59;;;;;;;3.80;0.80;;;;;;;;;;5072016;28;20053;-67
2022/05/30 00:20:26;;;;;;;2.05;0.88;;;;;;;;;;5080624;28;20055;-67
2022/05/30 00:22:52;;;;;;;2.95;0.77;;;;;;;;;;5081394;28;20060;-67
2022/05/30 00:25:19;;;;;;;3.03;0.90;;;;;;;;;;5078642;28;20056;-67
2022/05/30 00:27:46;;;;;;;1.70;0.75;;;;;;;;;;5087457;28;20051;-67
2022/05/30 00:30:13;;;;;;;2.22;0.77;;;;;;;;;;5081611;28;20112;-67
2022/05/30 00:32:42;;;;;;;2.05;0.77;;;;;;;;;;5087404;28;20040;-67
2022/05/30 00:35:08;;;;;;;;;;;;;;;;;;5084820;28;20067;-67
2022/05/30 00:37:35;;;;;;;5.95;0.85;;;;;;;;;;5086074;28;19923;-67
2022/05/30 00:40:01;;;;;;;2.90;0.80;;;;;;;;;;5090282;28;20052;-67
2022/05/30 00:42:28;;;;;;;3.95;0.82;;;;;;;;;;5083713;28;20051;-67
2022/05/30 00:44:56;;;;;;;4.15;1.00;;;;;;;;;;5088584;28;20067;-67
2022/05/30 00:47:25;;;;;;;3.17;1.13;;;;;;;;;;5081118;28;20116;-67
2022/05/30 00:49:55;;;;;;;16.70;2.17;;;;;;;;;;5087390;28;20115;-67
2022/05/30 00:52:25;;;;;;;2.15;0.85;;;;;;;;;;5078501;28;20059;-67
2022/05/30 00:54:54;;;;;;;2.80;1.00;;;;;;;;;;5083832;28;20076;-67
2022/05/30 00:57:21;;;;;;;3.10;0.80;;;;;;;;;;5066827;28;20105;-67
2022/05/30 00:59:50;;;;;;;2.47;0.93;;;;;;;;;;5082700;28;20121;-67
2022/05/30 01:02:17;;;;;;;2.25;0.90;;;;;;;;;;5083088;28;20056;-68
2022/05/30 01:07:29;;;;;;;1.15;0.73;;;;;;;;;;5086044;28;20044;-67
2022/05/30 01:09:56;;;;;;;3.70;1.08;;;;;;;;;;5083226;28;20052;-67
2022/05/30 01:12:35;;;;;;;1.35;0.60;;;;;;;;;;5086595;28;20112;-67
2022/05/30 01:15:02;;;;;;;3.53;0.88;;;;;;;;;;5079095;28;20073;-67
2022/05/30 01:17:28;;;;;;;2.78;0.88;;;;;;;;;;5091935;28;20083;-67
2022/05/30 01:19:56;;;;;;;2.60;0.90;;;;;;;;;;5065222;28;20063;-67
2022/05/30 01:22:37;;;;;;;1.13;0.60;;;;;;;;;;5083396;28;20048;-67
2022/05/30 01:25:08;;;;;;;2.33;0.82;;;;;;;;;;5066610;28;20110;-67
2022/05/30 01:27:39;;;;;;;4.97;1.00;;;;;;;;;;5093012;28;20144;-67
2022/05/30 01:30:08;;;;;;;0.93;0.60;;;;;;;;;;5083197;28;20159;-67
2022/05/30 01:32:35;;;;;;;0.82;0.60;;;;;;;;;;5075191;28;20075;-68
2022/05/30 01:35:02;;;;;;;1.80;0.75;;;;;;;;;;5089324;28;20040;-68
2022/05/30 01:37:29;;;;;;;5.80;0.95;;;;;;;;;;5085284;28;20052;-67
2022/05/30 01:39:55;;;;;;;1.88;0.85;;;;;;;;;;5091553;28;20052;-67
2022/05/30 01:42:22;;;;;;;2.78;0.90;;;;;;;;;;5088153;28;20118;-67
2022/05/30 01:44:49;;;;;;;1.67;0.80;;;;;;;;;;5106711;28;20067;-65
2022/05/30 01:47:17;;;;;;;2.35;1.08;;;;;;;;;;5107504;28;20056;-65
2022/05/30 01:49:44;;;;;;;2.90;1.00;;;;;;;;;;5101173;28;20114;-65
2022/05/30 01:52:11;;;;;;;2.78;0.70;;;;;;;;;;5108820;28;20052;-65
2022/05/30 01:54:38;;;;;;;1.50;0.90;;;;;;;;;;5103104;28;20063;-65
2022/05/30 01:57:06;;;;;;;2.37;0.83;;;;;;;;;;5092294;28;20090;-65
2022/05/30 01:59:32;;;;;;;3.03;0.95;;;;;;;;;;5081562;28;20056;-66
2022/05/30 02:01:59;;;;;;;5.57;1.35;;;;;;;;;;5090482;28;20048;-65
2022/05/30 02:04:27;;;;;;;3.60;1.13;;;;;;;;;;5089758;28;20063;-65
2022/05/30 02:06:53;;;;;;;3.00;1.00;;;;;;;;;;5086168;28;20051;-65
2022/05/30 02:09:20;;;;;;;5.30;1.25;;;;;;;;;;5090332;28;20055;-66
2022/05/30 02:11:46;;;;;;;2.40;0.90;;;;;;;;;;5084472;28;20059;-66
2022/05/30 02:14:13;;;;;;;4.22;1.02;;;;;;;;;;5091120;28;20056;-66
2022/05/30 02:19:24;;;;;;;4.65;1.45;;;;;;;;;;5090668;28;20056;-66
2022/05/30 02:21:52;;;;;;;5.15;0.82;;;;;;;;;;5080834;28;20044;-65
2022/05/30 02:24:19;;;;;;;2.30;0.80;;;;;;;;;;5069851;28;20098;-66
2022/05/30 02:26:45;;;;;;;3.92;0.90;;;;;;;;;;5081674;28;20045;-65
2022/05/30 02:29:12;;;;;;;1.75;0.75;;;;;;;;;;5069650;28;20052;-65
2022/05/30 02:31:39;;;;;;;1.17;0.80;;;;;;;;;;5070328;28;20048;-65
2022/05/30 02:36:49;;;;;;;2.55;0.85;;;;;;;;;;5107145;28;20102;-65
2022/05/30 02:39:18;;;;;;;3.63;0.88;;;;;;;;;;5081201;28;20060;-65
2022/05/30 02:41:45;;;;;;;;;;;;;;;;;;5069569;28;20056;-65
2022/05/30 02:44:13;;;;;;;1.85;0.77;;;;;;;;;;5080742;28;20024;-65
2022/05/30 02:46:39;;;;;;;1.30;0.93;;;;;;;;;;5088929;28;20131;-65
2022/05/30 02:49:06;;;;;;;4.15;1.00;;;;;;;;;;5068148;28;20052;-65
2022/05/30 02:51:33;;;;;;;1.48;0.90;;;;;;;;;;5068670;28;20052;-66
2022/05/30 02:53:59;;;;;;;2.63;0.93;;;;;;;;;;5064091;28;20079;-65
2022/05/30 02:56:27;;;;;;;1.35;0.70;;;;;;;;;;5085322;28;20131;-65
2022/05/30 02:58:54;;;;;;;1.53;0.83;;;;;;;;;;5089396;28;20086;-65
2022/05/30 03:01:21;;;;;;;1.95;0.88;;;;;;;;;;5088403;28;20317;-65
2022/05/30 03:03:47;;;;;;;2.30;0.85;;;;;;;;;;5076604;28;20159;-65
2022/05/30 03:06:14;;;;;;;2.03;0.93;;;;;;;;;;5085264;28;20080;-65
2022/05/30 03:08:41;;;;;;;3.22;1.10;;;;;;;;;;5066944;28;20052;-65
2022/05/30 03:11:07;;;;;;;1.60;0.80;;;;;;;;;;5088759;28;20082;-65
2022/05/30 03:13:35;;;;;;;2.53;0.82;;;;;;;;;;5098477;28;20059;-66
2022/05/30 03:16:02;;;;;;;1.88;0.88;;;;;;;;;;5069056;28;20131;-65
2022/05/30 03:18:29;;;;;;;2.28;0.90;;;;;;;;;;5067958;28;20083;-65
2022/05/30 03:20:56;;;;;;;2.20;0.70;;;;;;;;;;5082824;28;20136;-66
2022/05/30 03:23:22;;;;;;;2.13;1.00;;;;;;;;;;5068240;28;20064;-66
2022/05/30 03:25:50;;;;;;;2.20;1.00;;;;;;;;;;5080492;28;20059;-65
2022/05/30 03:28:16;;;;;;;4.00;0.80;;;;;;;;;;5088488;28;20052;-65
2022/05/30 03:30:44;;;;;;;2.65;0.93;;;;;;;;;;5068292;28;20044;-65
2022/05/30 03:33:11;;;;;;;2.25;0.90;;;;;;;;;;5068322;28;20051;-65
2022/05/30 03:35:39;;;;;;;2.63;0.80;;;;;;;;;;5076171;28;20167;-65
2022/05/30 03:38:07;;;;;;;3.10;0.80;;;;;;;;;;5088120;28;20081;-65
2022/05/30 03:40:36;;;;;;;1.60;0.80;;;;;;;;;;5082964;28;20139;-65
2022/05/30 03:43:03;;;;;;;1.25;0.70;;;;;;;;;;5088788;28;20048;-65
2022/05/30 03:45:31;;;;;;;2.70;0.98;;;;;;;;;;5083547;28;20047;-65
2022/05/30 03:47:59;;;;;;;1.05;0.70;;;;;;;;;;5089345;28;20097;-65
2022/05/30 03:50:25;;;;;;;5.30;0.77;;;;;;;;;;5084106;28;20048;-65
2022/05/30 03:52:52;;;;;;;1.92;0.80;;;;;;;;;;5108305;28;20052;-65
2022/05/30 03:55:20;;;;;;;3.05;1.00;;;;;;;;;;5084368;28;20064;-65
2022/05/30 03:57:47;;;;;;;1.45;0.88;;;;;;;;;;5088013;28;20059;-65
2022/05/30 04:00:15;;;;;;;3.28;1.00;;;;;;;;;;5081785;28;20040;-65
2022/05/30 04:02:42;;;;;;;1.67;0.80;;;;;;;;;;5067792;28;20072;-65
2022/05/30 04:05:11;;;;;;;1.30;0.68;;;;;;;;;;5068224;28;20086;-65
2022/05/30 04:07:38;;;;;;;0.95;0.80;;;;;;;;;;5063277;28;20054;-65
2022/05/30 04:10:05;;;;;;;1.75;0.80;;;;;;;;;;5067328;28;20114;-65
2022/05/30 04:12:31;;;;;;;1.33;0.80;;;;;;;;;;5062132;28;20063;-65
2022/05/30 04:15:00;;;;;;;2.10;0.85;;;;;;;;;;5067449;28;20052;-65
2022/05/30 04:17:27;;;;;;;1.70;0.80;;;;;;;;;;5061803;28;20155;-65
2022/05/30 04:19:54;;;;;;;1.27;0.90;;;;;;;;;;5066872;28;20044;-65
2022/05/30 04:22:21;;;;;;;3.72;0.90;;;;;;;;;;5062094;28;20076;-64
2022/05/30 04:24:49;;;;;;;1.17;0.80;;;;;;;;;;5107553;27;20104;-65
2022/05/30 04:27:16;;;;;;;2.00;0.85;;;;;;;;;;5098458;28;20654;-65
2022/05/30 04:29:42;;;;;;;4.32;0.93;;;;;;;;;;5087011;28;20159;-65
2022/05/30 04:32:09;;;;;;;2.38;0.85;;;;;;;;;;5098656;28;20048;-65
2022/05/30 04:34:37;;;;;;;2.17;0.90;;;;;;;;;;5104601;28;20055;-65
2022/05/30 04:37:04;;;;;;;2.10;1.00;;;;;;;;;;5081893;28;20047;-65
2022/05/30 04:39:32;;;;;;;3.15;0.95;;;;;;;;;;5103367;28;20047;-65
2022/05/30 04:41:58;;;;;;;2.55;0.90;;;;;;;;;;5078928;28;20048;-65
2022/05/30 04:44:25;;;;;;;2.00;0.82;;;;;;;;;;5065994;28;20056;-65
2022/05/30 04:46:53;;;;;;;1.48;1.00;;;;;;;;;;5067029;28;20063;-65
2022/05/30 04:49:20;;;;;;;1.70;0.90;;;;;;;;;;5082913;28;20097;-65
2022/05/30 04:51:46;;;;;;;1.70;0.77;;;;;;;;;;5103740;28;20051;-65
2022/05/30 04:54:15;;;;;;;3.47;1.00;;;;;;;;;;5081897;28;20052;-65
2022/05/30 04:56:42;;;;;;;;;;;;;;;;;;5084192;28;20044;-65
2022/05/30 04:59:10;;;;;;;3.30;1.40;;;;;;;;;;5077845;28;19923;-65
2022/05/30 05:01:37;;;;;;;10.23;1.83;;;;;;;;;;5084733;28;20060;-65
2022/05/30 05:04:03;;;;;;;2.85;1.00;;;;;;;;;;5068883;28;20126;-65
2022/05/30 05:06:30;;;;;;;6.03;1.00;;;;;;;;;;5085741;28;20064;-65
2022/05/30 05:08:59;;;;;;;3.15;0.90;;;;;;;;;;5078670;28;20052;-65
2022/05/30 05:11:27;;;;;;;4.05;1.55;;;;;;;;;;5087746;28;20056;-65
2022/05/30 05:13:54;;;;;;;2.60;1.02;;;;;;;;;;5078226;28;20088;-65
2022/05/30 05:16:24;;;;;;;10.05;2.58;;;;;;;;;;5085888;28;20060;-65
2022/05/30 05:18:51;;;;;;;1.95;0.93;;;;;;;;;;5086940;28;20047;-65
2022/05/30 05:21:19;;;;;;;3.45;1.10;;;;;;;;;;5079056;28;20051;-65
2022/05/30 05:23:45;;;;;;;4.03;1.00;;;;;;;;;;5087015;28;20064;-65
2022/05/30 05:26:12;;;;;;;2.15;1.00;;;;;;;;;;5077492;28;20290;-65
2022/05/30 05:28:38;;;;;;;5.75;1.20;;;;;;;;;;5089529;28;20064;-65
2022/05/30 05:31:06;;;;;;;3.75;1.10;;;;;;;;;;5078647;28;20120;-65
2022/05/30 05:33:34;;;;;;;2.83;1.00;;;;;;;;;;5090356;28;20055;-65
2022/05/30 05:36:01;;;;;;;2.33;1.10;;;;;;;;;;5081504;28;20071;-65
2022/05/30 05:38:28;;;;;;;4.38;1.35;;;;;;;;;;5083179;28;20048;-65
2022/05/30 05:40:55;;;;;;;10.65;3.65;;;;;;;;;;5088203;28;20070;-65
2022/05/30 05:43:22;;;;;;;11.07;2.97;;;;;;;;;;5084493;28;20052;-65
2022/05/30 05:45:49;;;;;;;5.97;2.10;;;;;;;;;;5090687;28;20082;-65
2022/05/30 05:48:16;;;;;;;4.75;1.73;;;;;;;;;;5085159;28;20127;-65
2022/05/30 05:50:45;;;;;;;6.63;1.70;;;;;;;;;;5107190;28;20120;-65
2022/05/30 05:53:11;;;;;;;;;;;;;;;;;;5102264;28;20058;-65
2022/05/30 05:55:40;;;;;;;3.45;1.42;;;;;;;;;;5090548;28;19928;-65
2022/05/30 05:58:06;;;;;;;;;;;;;;;;;;5090548;28;20105;-65
2022/05/30 06:00:33;;;;;;;3.95;1.20;;;;;;;;;;5083304;28;19946;-65
2022/05/30 06:02:59;;;;;;;4.85;1.40;;;;;;;;;;5088801;28;20083;-65
2022/05/30 06:05:26;;;;;;;2.75;1.13;;;;;;;;;;5080165;28;20052;-66
2022/05/30 06:07:59;;;;;;;2.25;0.95;;;;;;;;;;5070135;28;20056;-65
2022/05/30 06:10:25;;;;;;;7.03;1.30;;;;;;;;;;5088121;28;20059;-65
2022/05/30 06:12:52;;;;;;;2.60;0.95;;;;;;;;;;5106669;28;20056;-65
2022/05/30 06:15:20;;;;;;;6.63;1.80;;;;;;;;;;5103348;28;20055;-65
2022/05/30 06:17:47;;;;;;;8.15;1.88;;;;;;;;;;5074051;28;20045;-65
2022/05/30 06:20:15;;;;;;;5.47;1.38;;;;;;;;;;5085781;28;20048;-64
2022/05/30 06:22:41;;;;;;;4.55;1.35;;;;;;;;;;5081542;28;20044;-65
2022/05/30 06:25:10;;;;;;;4.15;1.45;;;;;;;;;;5086403;28;20098;-65
2022/05/30 06:27:36;;;;;;;;;;;;;;;;;;5079735;28;20068;-65
2022/05/30 06:30:04;;;;;;;2.88;1.02;;;;;;;;;;5090765;28;19927;-65
2022/05/30 06:32:30;;;;;;;7.38;1.20;;;;;;;;;;5072544;28;20114;-65
2022/05/30 06:34:57;;;;;;;5.40;1.02;;;;;;;;;;5068875;28;20060;-65
2022/05/30 06:37:24;;;;;;;5.38;1.30;;;;;;;;;;5064106;28;20048;-65
2022/05/30 06:39:51;;;;;;;1.52;0.95;;;;;;;;;;5069221;28;20065;-65
2022/05/30 06:42:19;;;;;;;4.05;1.23;;;;;;;;;;5064728;28;20044;-65
2022/05/30 06:44:46;;;;;;;4.50;1.08;;;;;;;;;;5069279;28;20101;-65
2022/05/30 06:47:13;;;;;;;5.57;1.05;;;;;;;;;;5067175;28;20044;-65
2022/05/30 06:49:39;;;;;;;6.70;1.27;;;;;;;;;;5089219;28;20059;-65
2022/05/30 06:52:08;;;;;;;5.25;1.17;;;;;;;;;;5100645;28;20055;-66
2022/05/30 06:54:35;;;;;;;15.32;1.67;;;;;;;;;;5090502;28;20056;-66
2022/05/30 06:59:47;;;;;;;6.00;1.42;;;;;;;;;;5083957;28;20166;-65
2022/05/30 07:02:15;;;;;;;5.35;1.27;;;;;;;;;;5087792;28;20053;-66
2022/05/30 07:04:43;;;;;;;3.10;0.88;;;;;;;;;;5104258;28;20134;-66
2022/05/30 07:07:10;;;;;;;2.67;0.80;;;;;;;;;;5108619;28;20044;-66
2022/05/30 07:09:38;;;;;;;4.43;0.98;;;;;;;;;;5066267;28;20064;-66
2022/05/30 07:12:05;;;;;;;2.80;0.98;;;;;;;;;;5086047;28;20049;-66
2022/05/30 07:14:33;;;;;;;7.60;1.38;;;;;;;;;;5071107;28;20052;-66
2022/05/30 07:17:01;;;;;;;5.35;1.17;;;;;;;;;;5088679;28;20063;-66
2022/05/30 07:19:28;;;;;;;3.67;1.00;;;;;;;;;;5070506;28;20106;-66
2022/05/30 07:21:55;;;;;;;5.45;1.40;;;;;;;;;;5085076;28;20060;-66
2022/05/30 07:24:22;;;;;;;2.75;0.85;;;;;;;;;;5071350;28;20049;-66
2022/05/30 07:26:48;;;;;;;4.50;0.90;;;;;;;;;;5071071;28;20056;-66
2022/05/30 07:29:15;;;;;;;1.48;0.73;;;;;;;;;;5074819;28;20072;-66
2022/05/30 07:31:43;;;;;;;3.70;0.63;;;;;;;;;;5067104;28;20052;-66
2022/05/30 07:34:11;;;;;;;5.97;1.13;;;;;;;;;;5065263;28;20057;-66
2022/05/30 07:36:38;;;;;;;5.25;0.80;;;;;;;;;;5067887;28;20155;-66
2022/05/30 07:39:05;;;;;;;3.50;0.82;;;;;;;;;;5062769;28;20106;-66
2022/05/30 07:41:31;;;;;;;5.40;0.80;;;;;;;;;;5068434;28;20053;-66
2022/05/30 07:43:58;;;;;;;3.33;0.90;;;;;;;;;;5064985;28;20060;-66
2022/05/30 07:46:25;;;;;;;6.18;0.93;;;;;;;;;;5086593;28;20052;-66
2022/05/30 07:48:52;;;;;;;2.67;0.80;;;;;;;;;;5104729;28;20060;-66
2022/05/30 07:51:20;;;;;;;2.45;0.98;;;;;;;;;;5063412;28;20052;-66
2022/05/30 07:53:47;;;;;;;4.85;0.95;;;;;;;;;;5067638;28;20060;-66
2022/05/30 07:56:15;;;;;;;3.58;0.63;;;;;;;;;;5061452;28;20053;-66
2022/05/30 07:58:41;;;;;;;2.83;0.88;;;;;;;;;;5067447;28;20067;-65
2022/05/30 08:01:12;;;;;;;2.75;0.70;;;;;;;;;;5074830;28;20132;-65
2022/05/30 08:03:39;;;;;;;2.15;0.88;;;;;;;;;;5086617;28;20048;-65
2022/05/30 08:06:06;;;;;;;3.50;0.70;;;;;;;;;;5082733;28;20062;-66
2022/05/30 08:08:33;;;;;;;1.95;0.70;;;;;;;;;;5088286;28;20056;-66
2022/05/30 08:11:00;;;;;;;2.27;1.00;;;;;;;;;;5090083;28;20156;-66
2022/05/30 08:13:27;;;;;;;5.07;0.55;;;;;;;;;;5067322;28;20052;-66
2022/05/30 08:15:53;;;;;;;1.65;0.70;;;;;;;;;;5062598;28;20094;-65
2022/05/30 08:18:20;;;;;;;1.27;0.70;;;;;;;;;;5083984;28;20064;-66
2022/05/30 08:20:47;;;;;;;2.60;0.68;;;;;;;;;;5079235;28;20082;-66
2022/05/30 08:23:13;;;;;;;4.45;0.75;;;;;;;;;;5075619;28;20051;-65
2022/05/30 08:25:43;;;;;;;2.05;0.70;;;;;;;;;;5080293;28;20146;-65
2022/05/30 08:28:10;;;;;;;3.75;0.80;;;;;;;;;;5067780;28;20052;-66
2022/05/30 08:30:37;;;;;;;1.70;0.75;;;;;;;;;;5067064;28;20053;-66
2022/05/30 08:33:09;;;;;;;0.85;0.60;;;;;;;;;;5096447;28;20047;-66
2022/05/30 08:35:37;;;;;;;2.53;0.90;;;;;;;;;;5088035;28;20080;-66
2022/05/30 08:38:04;;;;;;;4.50;1.02;;;;;;;;;;5082690;28;20144;-66
2022/05/30 08:43:17;;;;;;;3.22;0.60;;;;;;;;;;5080964;28;20074;-66
2022/05/30 08:45:46;;;;;;;3.10;0.80;;;;;;;;;;5088163;28;20052;-66
2022/05/30 08:48:13;;;;;;;3.70;0.70;;;;;;;;;;5099432;28;20074;-66
2022/05/30 08:50:44;;;;;;;2.92;0.70;;;;;;;;;;5103617;28;20082;-66
2022/05/30 08:53:36;;;;;;;1.98;0.70;;;;;;;;;;5112025;27;20397;-66
2022/05/30 08:56:09;;;;;;;1.90;0.73;;;;;;;;;;5044421;28;20084;-66
2022/05/30 08:58:41;;;;;;;3.13;0.90;;;;;;;;;;5039418;28;20061;-66
2022/05/30 09:01:10;;;;;;;2.47;0.60;;;;;;;;;;5045012;28;20064;-66
2022/05/30 09:03:38;;;;;;;3.75;0.60;;;;;;;;;;5039031;28;20064;-66
2022/05/30 09:06:07;;;;;;;0.82;0.70;;;;;;;;;;5044818;28;20068;-66
2022/05/30 09:08:38;;;;;;;4.50;0.80;;;;;;;;;;5038405;28;20080;-66
2022/05/30 09:11:08;;;;;;;5.60;0.77;;;;;;;;;;5044253;28;20060;-66
2022/05/30 09:13:37;;;;;;;3.17;0.85;;;;;;;;;;5038166;28;20076;-67
2022/05/30 09:16:07;;;;;;;6.32;0.82;;;;;;;;;;5043596;28;20061;-66
2022/05/30 09:18:36;;;;;;;2.92;0.90;;;;;;;;;;5043213;28;20053;-66
2022/05/30 09:21:03;;;;;;;3.55;0.90;;;;;;;;;;5043328;28;20107;-66
2022/05/30 09:23:30;;;;;;;1.48;0.70;;;;;;;;;;5037036;28;20117;-66
2022/05/30 09:26:00;;;;;;;1.33;0.60;;;;;;;;;;5044431;28;20068;-66
2022/05/30 09:28:28;;;;;;;4.15;0.90;;;;;;;;;;5033033;28;20061;-66
2022/05/30 09:30:58;;;;;;;2.55;0.90;;;;;;;;;;5022008;28;20049;-66
2022/05/30 09:33:29;;;;;;;0.68;0.50;;;;;;;;;;5020076;28;20081;-66
2022/05/30 09:36:13;;;;;;;3.45;0.70;;;;;;;;;;5044114;28;20049;-66
2022/05/30 09:38:45;;;;;;;2.85;0.90;;;;;;;;;;5052214;28;20056;-66
2022/05/30 09:41:20;;;;;;;4.18;0.55;;;;;;;;;;5043861;28;20049;-67
2022/05/30 09:43:49;;;;;;;7.03;1.05;;;;;;;;;;5038122;28;20049;-66
2022/05/30 09:46:18;;;;;;;5.60;1.00;;;;;;;;;;5043022;28;20056;-66
2022/05/30 09:48:59;;;;;;;2.80;0.90;;;;;;;;;;5042726;28;20075;-66
2022/05/30 09:51:32;;;;;;;3.72;0.70;;;;;;;;;;5039507;28;20149;-66
2022/05/30 09:53:59;;;;;;;3.72;0.80;;;;;;;;;;5031390;28;20063;-66
2022/05/30 09:56:28;;;;;;;1.63;0.65;;;;;;;;;;5057945;28;20053;-67
2022/05/30 09:59:00;;;;;;;1.38;0.63;;;;;;;;;;5033774;28;20061;-67
2022/05/30 10:01:28;;;;;;;4.32;0.90;;;;;;;;;;5036827;28;20111;-67
2022/05/30 10:03:59;;;;;;;2.67;0.87;;;;;;;;;;5034422;28;20045;-66
2022/05/30 10:06:27;;;;;;;2.70;0.77;;;;;;;;;;5022887;28;20300;-67
2022/05/30 10:09:11;;;;;;;4.47;1.10;;;;;;;;;;5030281;28;20132;-67
2022/05/30 10:11:39;;;;;;;2.00;0.80;;;;;;;;;;5024148;28;20068;-67
2022/05/30 10:14:19;;;;;;;2.60;1.00;;;;;;;;;;5029894;28;20080;-67
2022/05/30 10:16:46;;;;;;;2.15;0.80;;;;;;;;;;5023879;28;20109;-66
2022/05/30 10:19:24;;;;;;;1.92;0.63;;;;;;;;;;5030467;28;20061;-66
2022/05/30 10:30:26;;;;;;;4.47;0.70;;;;;;;;;;5029657;28;20057;-67
2022/05/30 10:33:02;;;;;;;1.88;0.70;;;;;;;;;;5026183;28;20061;-66
2022/05/30 10:35:34;;;;;;;1.67;0.65;;;;;;;;;;5009709;28;20053;-66
2022/05/30 10:38:20;;;;;;;0.50;0.50;;;;;;;;;;5026435;28;20058;-67
2022/05/30 10:40:59;;;;;;;1.90;0.63;;;;;;;;;;5026748;28;20058;-67
2022/05/30 10:43:32;;;;;;;2.13;1.30;;;;;;;;;;5025249;28;20050;-66
2022/05/30 10:46:02;;;;;;;1.98;0.90;;;;;;;;;;5040564;28;20054;-67
2022/05/30 10:48:31;;;;;;;2.90;0.80;;;;;;;;;;5040767;28;20054;-67
2022/05/30 10:50:59;;;;;;;1.75;0.75;;;;;;;;;;5042091;28;20061;-66
2022/05/30 10:53:32;;;;;;;4.47;0.88;;;;;;;;;;5017677;28;20057;-67
2022/05/30 10:56:00;;;;;;;2.58;0.98;;;;;;;;;;5028520;28;20050;-67
2022/05/30 10:58:30;;;;;;;1.35;0.73;;;;;;;;;;4991353;28;20062;-67
2022/05/30 11:00:59;;;;;;;2.70;0.90;;;;;;;;;;5004982;28;20054;-67
2022/05/30 11:03:27;;;;;;;7.15;1.00;;;;;;;;;;4997951;28;20049;-67
2022/05/30 11:05:57;;;;;;;2.00;0.70;;;;;;;;;;5014826;28;20049;-67
2022/05/30 11:08:27;;;;;;;2.33;0.60;;;;;;;;;;5020317;28;20064;-67
2022/05/30 11:10:59;;;;;;;2.03;0.90;;;;;;;;;;5011012;28;20057;-67
2022/05/30 11:13:34;;;;;;;3.13;0.90;;;;;;;;;;5010426;28;20076;-67
2022/05/30 11:16:03;;;;;;;2.15;0.52;;;;;;;;;;5025870;28;20095;-67
2022/05/30 11:18:32;;;;;;;5.40;1.00;;;;;;;;;;5018394;28;20064;-67
2022/05/30 11:21:03;;;;;;;1.55;0.80;;;;;;;;;;5058384;28;20041;-66
2022/05/30 11:23:33;;;;;;;2.05;0.85;;;;;;;;;;5028567;28;20061;-67
2022/05/30 11:26:42;;;;;;;2.42;0.90;;;;;;;;;;5022427;28;20049;-67
2022/05/30 11:29:15;;;;;;;1.50;0.63;;;;;;;;;;5028395;28;20055;-66
2022/05/30 11:31:48;;;;;;;4.95;0.73;;;;;;;;;;5023933;28;20059;-66
2022/05/30 11:34:26;;;;;;;2.05;0.93;;;;;;;;;;5045003;28;20064;-66
2022/05/30 11:37:02;;;;;;;4.05;0.90;;;;;;;;;;5038183;28;20115;-66
2022/05/30 11:39:42;;;;;;;1.15;0.70;;;;;;;;;;5045234;28;20049;-66
2022/05/30 11:42:15;;;;;;;4.75;0.80;;;;;;;;;;5038859;28;20057;-66
2022/05/30 11:44:48;;;;;;;2.47;0.80;;;;;;;;;;5028315;28;20053;-66
2022/05/30 11:47:35;;;;;;;2.53;1.00;;;;;;;;;;5038422;28;20045;-66
2022/05/30 11:50:08;;;;;;;1.80;0.70;;;;;;;;;;5018931;28;20109;-66
2022/05/30 11:52:40;;;;;;;3.17;0.70;;;;;;;;;;5022080;28;20141;-66
2022/05/30 11:55:12;;;;;;;3.45;0.90;;;;;;;;;;5030329;28;20057;-66
2022/05/30 11:57:42;;;;;;;3.20;0.80;;;;;;;;;;5023639;28;20093;-66
2022/05/30 12:00:13;;;;;;;4.50;0.80;;;;;;;;;;5044429;28;20060;-66
2022/05/30 12:02:57;;;;;;;3.60;0.90;;;;;;;;;;5046498;28;20057;-66
2022/05/30 12:05:39;;;;;;;2.65;0.77;;;;;;;;;;5027178;28;20061;-66
2022/05/30 12:08:18;;;;;;;1.95;0.70;;;;;;;;;;5029726;28;20137;-67
2022/05/30 12:10:44;;;;;;;;;;;;;;;;;;5023400;28;20057;-66
2022/05/30 12:13:17;;;;;;;4.60;1.05;;;;;;;;;;5028271;28;19921;-66
2022/05/30 12:16:03;;;;;;;3.58;0.75;;;;;;;;;;5022321;28;20049;-66
2022/05/30 12:24:32;;;;;;;2.25;0.90;;;;;;;;;;5026804;28;20080;-66
2022/05/30 12:26:58;;;;;;;;;;;;;;;;;;5038939;28;20080;-66
2022/05/30 12:29:32;;;;;;;2.83;0.70;;;;;;;;;;5027767;28;19921;-66
2022/05/30 12:32:12;;;;;;;3.05;0.80;;;;;;;;;;5021790;28;20053;-66
2022/05/30 12:34:57;;;;;;;4.68;0.93;;;;;;;;;;5028002;28;20061;-67
2022/05/30 12:37:41;;;;;;;1.55;0.73;;;;;;;;;;5021894;28;20045;-66
2022/05/30 12:40:11;;;;;;;2.60;1.20;;;;;;;;;;5026963;28;20057;-67
2022/05/30 12:42:42;;;;;;;2.92;0.95;;;;;;;;;;5022795;28;20057;-66
2022/05/30 12:45:22;;;;;;;3.92;0.82;;;;;;;;;;5028156;28;20053;-66
2022/05/30 12:47:51;;;;;;;3.70;0.90;;;;;;;;;;5021339;28;20103;-66
2022/05/30 12:50:40;;;;;;;2.85;0.70;;;;;;;;;;5020246;28;20049;-66
2022/05/30 12:53:07;;;;;;;3.83;1.00;;;;;;;;;;5021641;28;20053;-66
2022/05/30 12:55:37;;;;;;;2.20;0.85;;;;;;;;;;5027276;28;20063;-67
2022/05/30 12:58:04;;;;;;;3.38;0.85;;;;;;;;;;5021936;28;20057;-66
2022/05/30 13:00:48;;;;;;;4.15;1.00;;;;;;;;;;5027227;28;20120;-67
2022/05/30 13:03:33;;;;;;;1.98;0.90;;;;;;;;;;5020744;28;20053;-67
2022/05/30 13:06:10;;;;;;;2.90;0.80;;;;;;;;;;5005343;28;20044;-67
2022/05/30 13:09:03;;;;;;;2.88;0.95;;;;;;;;;;5020056;28;20049;-67
2022/05/30 13:11:46;;;;;;;2.95;0.90;;;;;;;;;;5040408;28;20057;-68
2022/05/30 13:14:16;;;;;;;6.95;1.38;;;;;;;;;;5022755;28;20068;-66
2022/05/30 13:16:44;;;;;;;3.95;1.40;;;;;;;;;;5025514;28;20041;-67
2022/05/30 13:19:12;;;;;;;1.77;1.00;;;;;;;;;;5016541;28;20045;-67
2022/05/30 13:21:39;;;;;;;1.00;0.70;;;;;;;;;;5044846;28;20137;-67
2022/05/30 13:24:22;;;;;;;2.63;1.15;;;;;;;;;;5032243;28;20080;-68
2022/05/30 13:26:51;;;;;;;3.83;0.90;;;;;;;;;;5027761;28;20077;-67
2022/05/30 13:29:18;;;;;;;7.35;1.08;;;;;;;;;;5021118;28;20057;-67
2022/05/30 13:31:49;;;;;;;5.75;1.15;;;;;;;;;;5044947;28;20053;-66
2022/05/30 13:34:17;;;;;;;3.03;1.00;;;;;;;;;;5041215;28;20061;-66
2022/05/30 13:36:44;;;;;;;3.33;0.90;;;;;;;;;;5023902;28;20057;-67
2022/05/30 13:39:11;;;;;;;2.13;0.85;;;;;;;;;;5045375;28;20064;-67
2022/05/30 13:41:39;;;;;;;1.90;0.80;;;;;;;;;;5041774;28;20071;-67
2022/05/30 13:44:13;;;;;;;3.40;1.00;;;;;;;;;;5032095;28;20057;-67
2022/05/30 13:46:40;;;;;;;2.90;1.10;;;;;;;;;;5026405;28;20060;-68
2022/05/30 13:49:07;;;;;;;4.47;1.05;;;;;;;;;;5049188;28;20061;-67
2022/05/30 13:51:35;;;;;;;1.48;0.75;;;;;;;;;;5025704;28;20151;-66
2022/05/30 13:54:02;;;;;;;1.48;0.63;;;;;;;;;;5047608;28;20045;-68
2022/05/30 13:56:33;;;;;;;4.30;1.00;;;;;;;;;;5030554;28;20061;-66
2022/05/30 13:59:01;;;;;;;4.65;1.00;;;;;;;;;;5039399;28;20053;-68
2022/05/30 14:01:33;;;;;;;2.13;1.13;;;;;;;;;;5029749;28;20053;-66
2022/05/30 14:04:03;;;;;;;3.63;1.10;;;;;;;;;;5024224;28;20053;-67
2022/05/30 14:06:34;;;;;;;3.83;1.00;;;;;;;;;;5046830;28;20084;-66
2022/05/30 14:09:01;;;;;;;2.53;0.80;;;;;;;;;;5023904;28;20049;-67
2022/05/30 14:11:30;;;;;;;2.45;0.80;;;;;;;;;;5029501;28;20057;-66
2022/05/30 14:13:57;;;;;;;2.50;0.85;;;;;;;;;;5024279;28;20053;-67
2022/05/30 14:16:36;;;;;;;2.60;1.20;;;;;;;;;;5061710;28;20140;-67
2022/05/30 14:19:03;;;;;;;1.52;0.80;;;;;;;;;;5029268;28;20053;-69
2022/05/30 14:21:34;;;;;;;2.03;0.73;;;;;;;;;;5024585;28;20050;-67
2022/05/30 14:24:13;;;;;;;2.78;0.80;;;;;;;;;;5042494;28;20042;-70
2022/05/30 14:26:41;;;;;;;6.00;1.40;;;;;;;;;;5022763;28;20057;-70
2022/05/30 14:29:08;;;;;;;2.35;0.88;;;;;;;;;;5029088;28;20107;-68
2022/05/30 14:31:36;;;;;;;2.33;0.60;;;;;;;;;;5023447;28;20071;-68
2022/05/30 14:34:11;;;;;;;2.42;0.82;;;;;;;;;;5043650;28;20069;-67
2022/05/30 14:36:39;;;;;;;0.90;0.80;;;;;;;;;;5023559;28;20042;-68
2022/05/30 14:39:14;;;;;;;3.35;1.02;;;;;;;;;;5028927;28;20061;-67
2022/05/30 14:41:50;;;;;;;0.88;0.60;;;;;;;;;;5011895;28;20066;-69
2022/05/30 14:44:19;;;;;;;4.38;0.90;;;;;;;;;;5009558;28;20058;-68
2022/05/30 14:46:47;;;;;;;2.45;0.80;;;;;;;;;;5014290;28;20064;-67
2022/05/30 14:49:15;;;;;;;3.33;0.80;;;;;;;;;;5028986;28;20065;-67
2022/05/30 14:51:50;;;;;;;3.85;0.90;;;;;;;;;;5022914;28;20045;-68
2022/05/30 14:54:24;;;;;;;2.33;0.60;;;;;;;;;;5030171;28;20057;-69
2022/05/30 14:56:51;;;;;;;3.85;0.73;;;;;;;;;;5023605;28;20054;-67
2022/05/30 14:59:32;;;;;;;1.70;0.80;;;;;;;;;;5028525;28;20055;-67
2022/05/30 15:02:00;;;;;;;1.85;0.73;;;;;;;;;;5022686;28;20045;-69
2022/05/30 15:04:27;;;;;;;2.97;0.93;;;;;;;;;;5029679;28;20107;-70
2022/05/30 15:06:59;;;;;;;4.20;1.00;;;;;;;;;;5024064;28;20053;-71
2022/05/30 15:09:27;;;;;;;3.67;0.95;;;;;;;;;;5029052;28;20061;-71
2022/05/30 15:11:54;;;;;;;1.73;0.70;;;;;;;;;;5024575;28;20103;-71
2022/05/30 15:14:22;;;;;;;2.05;0.70;;;;;;;;;;5029714;28;20064;-67
2022/05/30 15:16:51;;;;;;;3.10;1.00;;;;;;;;;;5025045;28;20166;-67
2022/05/30 15:19:21;;;;;;;4.90;1.10;;;;;;;;;;5025252;28;20059;-67
2022/05/30 15:21:48;;;;;;;4.45;0.80;;;;;;;;;;5028975;28;20057;-71
2022/05/30 15:24:16;;;;;;;2.13;0.50;;;;;;;;;;5023508;28;20056;-69
2022/05/30 15:26:43;;;;;;;2.10;0.65;;;;;;;;;;5029658;28;20060;-71